Time;durP1;ratioP1;P1;durP2;ratioP2;P2;SDS_P1;SDS_P2;PMS_P1;PMS_P2;Temp;Humidity;BMP_temperature;BMP_pressure;BME280_temperature;BME280_humidity;BME280_pressure;Samples;Min_cycle;Max_cycle;Signal;HPM_P1;HPM_P2
2023/06/23 00:00:25;;;;;;;57.55;20.80;;;18.50;99.90;;;;;;5039196;28;20028;-93
2023/06/23 00:02:51;;;;;;;52.60;19.90;;;18.50;99.90;;;;;;5038582;28;20025;-94
2023/06/23 00:05:16;;;;;;;36.83;17.65;;;18.50;99.90;;;;;;5039107;28;20037;-93
2023/06/23 00:07:44;;;;;;;32.78;16.23;;;18.50;99.90;;;;;;5038706;28;20501;-94
2023/06/23 00:10:12;;;;;;;59.92;21.98;;;18.50;99.90;;;;;;5038978;28;20197;-93
2023/06/23 00:12:42;;;;;;;37.70;16.63;;;18.40;99.90;;;;;;5052296;28;20032;-94
2023/06/23 00:15:10;;;;;;;38.22;17.98;;;18.40;99.90;;;;;;5059577;28;20029;-93
2023/06/23 00:17:37;;;;;;;47.17;19.50;;;18.40;99.90;;;;;;5076638;28;20001;-91
2023/06/23 00:20:12;;;;;;;34.10;16.10;;;18.40;99.90;;;;;;5059692;28;20055;-93
2023/06/23 00:22:42;;;;;;;34.65;15.80;;;18.40;99.90;;;;;;5058681;28;20025;-93
2023/06/23 00:25:12;;;;;;;36.97;17.23;;;18.40;99.90;;;;;;5041460;28;20123;-93
2023/06/23 00:27:44;;;;;;;37.20;17.00;;;18.40;99.90;;;;;;5033682;28;20024;-95
2023/06/23 00:30:14;;;;;;;31.38;14.98;;;18.40;99.90;;;;;;5069709;28;20035;-94
2023/06/23 00:32:41;;;;;;;42.80;18.67;;;18.40;99.90;;;;;;5077495;28;20056;-92
2023/06/23 00:35:14;;;;;;;54.00;21.63;;;18.30;99.90;;;;;;5030927;28;20063;-93
2023/06/23 00:37:43;;;;;;;35.28;16.70;;;18.30;99.90;;;;;;5022585;28;20033;-93
2023/06/23 00:40:12;;;;;;;63.05;22.70;;;18.30;99.90;;;;;;5038521;28;20064;-93
2023/06/23 00:42:46;;;;;;;65.00;22.80;;;18.30;99.90;;;;;;5038016;28;20021;-93
2023/06/23 00:45:13;;;;;;;66.90;22.08;;;18.30;99.90;;;;;;5037956;28;20170;-93
2023/06/23 00:47:51;;;;;;;50.05;20.77;;;18.30;99.90;;;;;;5038351;28;20044;-93
2023/06/23 00:50:19;;;;;;;69.43;23.48;;;18.20;99.90;;;;;;5055730;28;20024;-94
2023/06/23 00:52:52;;;;;;;94.03;26.52;;;18.20;99.90;;;;;;5038139;28;20035;-95
2023/06/23 00:55:20;;;;;;;53.58;18.95;;;18.20;99.90;;;;;;5038478;28;20025;-92
2023/06/23 00:57:47;;;;;;;54.38;20.73;;;18.20;99.90;;;;;;5037835;28;20031;-93
2023/06/23 01:00:17;;;;;;;67.85;23.77;;;18.20;99.90;;;;;;5037794;28;20040;-93
2023/06/23 01:02:42;;;;;;;63.30;21.80;;;18.10;99.90;;;;;;5021542;28;20062;-93
2023/06/23 01:05:09;;;;;;;41.90;18.85;;;18.10;99.90;;;;;;5021339;28;20028;-92
2023/06/23 01:08:13;;;;;;;48.47;19.83;;;18.10;99.90;;;;;;5021527;28;20474;-93
2023/06/23 01:10:50;;;;;;;53.15;21.40;;;18.10;99.90;;;;;;5033029;28;20079;-91
2023/06/23 01:13:47;;;;;;;35.75;18.17;;;18.00;99.90;;;;;;5055600;28;20096;-94
2023/06/23 01:16:29;;;;;;;86.63;25.85;;;18.00;99.90;;;;;;5038278;28;20064;-95
2023/06/23 01:19:26;;;;;;;40.85;19.23;;;18.00;99.90;;;;;;5038320;28;20112;-92
2023/06/23 01:22:27;;;;;;;80.68;24.98;;;18.00;99.90;;;;;;5058661;28;20029;-93
2023/06/23 01:25:11;;;;;;;;;;;17.90;99.90;;;;;;5042113;28;20110;-94
2023/06/23 01:27:58;;;;;;;49.08;20.30;;;17.90;99.90;;;;;;5059458;28;19912;-93
2023/06/23 01:30:26;;;;;;;38.13;19.58;;;17.90;99.90;;;;;;5060548;28;20005;-92
2023/06/23 01:32:59;;;;;;;48.58;20.88;;;17.80;99.90;;;;;;5069581;28;20028;-93
2023/06/23 01:35:28;;;;;;;61.70;23.17;;;17.80;99.90;;;;;;5041709;28;20383;-91
2023/06/23 01:38:00;;;;;;;75.97;25.95;;;17.80;99.90;;;;;;5040875;28;20025;-92
2023/06/23 01:40:27;;;;;;;70.80;26.25;;;17.80;99.90;;;;;;5041238;28;20021;-93
2023/06/23 01:42:57;;;;;;;54.47;22.77;;;17.80;99.90;;;;;;5024444;28;20466;-93
2023/06/23 01:45:27;;;;;;;43.50;19.77;;;17.80;99.90;;;;;;5041954;28;20496;-93
2023/06/23 01:47:54;;;;;;;47.78;21.80;;;17.80;99.90;;;;;;5044611;28;20025;-93
2023/06/23 01:50:21;;;;;;;63.63;24.25;;;17.80;99.90;;;;;;5061426;28;20013;-93
2023/06/23 01:52:49;;;;;;;77.85;26.77;;;17.80;99.90;;;;;;5057386;28;20039;-92
2023/06/23 01:55:19;;;;;;;42.42;21.13;;;17.80;99.90;;;;;;5044336;28;20028;-94
2023/06/23 01:57:47;;;;;;;92.75;27.75;;;17.70;99.90;;;;;;5045587;28;20022;-92
2023/06/23 02:00:18;;;;;;;56.33;24.25;;;17.70;99.90;;;;;;5063499;28;20033;-93
2023/06/23 02:02:47;;;;;;;34.22;18.70;;;17.70;99.90;;;;;;5080726;28;20069;-93
2023/06/23 02:05:14;;;;;;;53.75;22.60;;;17.70;99.90;;;;;;5063522;28;20529;-93
2023/06/23 02:07:43;;;;;;;43.08;19.58;;;17.70;99.90;;;;;;5044682;28;20060;-95
2023/06/23 02:10:09;;;;;;;85.95;27.98;;;17.70;99.90;;;;;;5039377;28;20044;-93
2023/06/23 02:12:38;;;;;;;56.30;22.67;;;17.70;99.90;;;;;;5039285;28;20119;-92
2023/06/23 02:15:06;;;;;;;68.78;24.80;;;17.70;99.90;;;;;;5039625;28;20025;-92
2023/06/23 02:17:33;;;;;;;45.55;21.30;;;17.60;99.90;;;;;;5039930;28;20023;-93
2023/06/23 02:20:00;;;;;;;54.63;24.40;;;17.60;99.90;;;;;;5023455;28;20025;-93
2023/06/23 02:22:28;;;;;;;57.08;24.90;;;17.60;99.90;;;;;;5039277;28;20021;-93
2023/06/23 02:24:58;;;;;;;59.10;23.00;;;17.60;99.90;;;;;;5039289;28;20040;-91
2023/06/23 02:27:24;;;;;;;41.13;21.43;;;17.60;99.90;;;;;;5040557;28;20017;-92
2023/06/23 02:29:50;;;;;;;27.63;17.38;;;17.60;99.90;;;;;;5040396;28;20274;-93
2023/06/23 02:32:17;;;;;;;40.20;20.45;;;17.50;99.90;;;;;;5024260;28;20025;-92
2023/06/23 02:34:49;;;;;;;45.55;21.67;;;17.50;99.90;;;;;;5024681;28;20040;-93
2023/06/23 02:37:23;;;;;;;50.65;24.55;;;17.50;99.90;;;;;;5028258;28;20021;-93
2023/06/23 02:40:09;;;;;;;59.97;25.63;;;17.50;99.90;;;;;;5060550;28;20021;-91
2023/06/23 02:42:40;;;;;;;65.57;27.75;;;17.50;99.90;;;;;;5045172;28;20033;-93
2023/06/23 02:45:12;;;;;;;38.05;22.17;;;17.50;99.90;;;;;;5040065;28;20045;-92
2023/06/23 02:47:41;;;;;;;35.95;21.67;;;17.50;99.90;;;;;;5040461;28;20056;-94
2023/06/23 02:50:11;;;;;;;64.03;26.95;;;17.40;99.90;;;;;;5039891;28;20040;-93
2023/06/23 02:52:44;;;;;;;70.93;28.33;;;17.40;99.90;;;;;;5040207;28;20032;-93
2023/06/23 02:55:12;;;;;;;53.35;27.00;;;17.40;99.90;;;;;;5040151;28;20036;-94
2023/06/23 02:57:39;;;;;;;86.40;32.10;;;17.40;99.90;;;;;;5040515;28;20029;-93
2023/06/23 03:00:13;;;;;;;79.60;33.10;;;17.40;99.90;;;;;;5039598;28;20524;-93
2023/06/23 03:02:42;;;;;;;51.35;25.35;;;17.40;99.90;;;;;;5057661;28;20021;-93
2023/06/23 03:05:08;;;;;;;88.15;33.88;;;17.40;99.90;;;;;;5059794;28;20085;-93
2023/06/23 03:07:38;;;;;;;73.75;31.90;;;17.40;99.90;;;;;;5033463;28;20033;-93
2023/06/23 03:10:06;;;;;;;79.90;33.70;;;17.40;99.90;;;;;;5062095;28;20033;-92
2023/06/23 03:12:32;;;;;;;71.93;31.45;;;17.40;99.90;;;;;;5046107;28;20056;-92
2023/06/23 03:14:59;;;;;;;114.53;37.95;;;17.40;99.90;;;;;;5023113;28;20082;-92
2023/06/23 03:17:27;;;;;;;91.32;34.60;;;17.40;99.90;;;;;;5057305;28;20032;-92
2023/06/23 03:20:16;;;;;;;131.85;42.80;;;17.40;99.90;;;;;;5039540;28;20115;-91
2023/06/23 03:22:54;;;;;;;96.20;37.65;;;17.30;99.90;;;;;;5040186;28;20017;-93
2023/06/23 03:25:26;;;;;;;84.07;37.72;;;17.40;99.90;;;;;;5039533;28;20036;-93
2023/06/23 03:27:59;;;;;;;172.52;50.47;;;17.40;99.90;;;;;;5057216;28;20474;-93
2023/06/23 03:30:31;;;;;;;161.98;49.78;;;17.40;99.90;;;;;;5040106;28;20036;-94
2023/06/23 03:33:03;;;;;;;175.65;51.63;;;17.30;99.90;;;;;;5039584;28;20509;-93
2023/06/23 03:35:36;;;;;;;184.55;55.20;;;17.30;99.90;;;;;;5039482;28;20032;-94
2023/06/23 03:38:04;;;;;;;256.13;62.13;;;17.30;99.90;;;;;;5039912;28;20022;-95
2023/06/23 03:40:38;;;;;;;239.02;61.42;;;17.30;99.90;;;;;;5040952;28;20438;-95
2023/06/23 03:43:21;;;;;;;193.80;56.47;;;17.30;99.90;;;;;;5040490;28;20037;-94
2023/06/23 03:45:55;;;;;;;119.90;48.10;;;17.30;99.90;;;;;;5046764;28;20045;-94
2023/06/23 03:48:24;;;;;;;159.02;53.55;;;17.30;99.90;;;;;;5053464;28;20021;-94
2023/06/23 03:50:53;;;;;;;162.63;54.30;;;17.30;99.90;;;;;;5040533;28;20064;-94
2023/06/23 03:53:20;;;;;;;214.45;59.60;;;17.30;99.90;;;;;;5039801;28;20068;-95
2023/06/23 03:55:48;;;;;;;258.67;64.80;;;17.30;99.90;;;;;;5040462;28;20021;-95
2023/06/23 03:58:15;;;;;;;283.83;68.45;;;17.30;99.90;;;;;;5041639;28;20549;-94
2023/06/23 04:00:42;;;;;;;221.90;62.75;;;17.30;99.90;;;;;;5026920;28;20029;-94
2023/06/23 04:03:09;;;;;;;120.30;50.00;;;17.30;99.90;;;;;;5044203;28;20120;-95
2023/06/23 04:05:38;;;;;;;143.52;53.42;;;17.30;99.90;;;;;;5043497;28;20052;-94
2023/06/23 04:08:05;;;;;;;343.83;73.05;;;17.30;99.90;;;;;;5044555;28;20013;-95
2023/06/23 04:10:32;;;;;;;235.48;63.10;;;17.30;99.90;;;;;;5032307;28;20109;-94
2023/06/23 04:13:00;;;;;;;167.52;55.03;;;17.30;99.90;;;;;;5041397;28;20037;-91
2023/06/23 04:15:26;;;;;;;212.55;61.60;;;17.30;99.90;;;;;;5060095;28;20036;-95
2023/06/23 04:17:55;;;;;;;162.57;55.67;;;17.30;99.90;;;;;;5043047;28;20077;-94
2023/06/23 04:20:23;;;;;;;173.18;57.70;;;17.30;99.90;;;;;;5059954;28;20087;-94
2023/06/23 04:22:49;;;;;;;129.93;52.47;;;17.30;99.90;;;;;;5059956;28;20009;-94
2023/06/23 04:25:18;;;;;;;179.02;59.13;;;17.30;99.90;;;;;;5060277;28;20020;-95
2023/06/23 04:27:47;;;;;;;105.78;49.28;;;17.30;99.90;;;;;;5054761;28;20098;-96
2023/06/23 04:30:15;;;;;;;167.13;59.05;;;17.30;99.90;;;;;;5045090;28;20029;-96
2023/06/23 04:32:42;;;;;;;193.93;59.38;;;17.30;99.90;;;;;;5041602;28;20050;-94
2023/06/23 04:35:08;;;;;;;151.00;55.38;;;17.30;99.90;;;;;;5039912;28;20029;-95
2023/06/23 04:37:55;;;;;;;192.68;60.60;;;17.30;99.90;;;;;;5022680;28;20393;-94
2023/06/23 04:40:26;;;;;;;199.48;60.78;;;17.30;99.90;;;;;;5039242;28;20029;-94
2023/06/23 04:43:19;;;;;;;140.07;53.63;;;17.30;99.90;;;;;;5039344;28;20029;-95
2023/06/23 04:45:54;;;;;;;148.23;54.65;;;17.30;99.90;;;;;;5034910;28;20199;-96
2023/06/23 04:48:25;;;;;;;170.95;58.17;;;17.30;99.90;;;;;;5039177;28;20466;-95
2023/06/23 04:50:56;;;;;;;116.75;50.13;;;17.30;99.90;;;;;;5038941;28;20028;-96
2023/06/23 04:53:25;;;;;;;;;;;17.20;99.90;;;;;;5058186;28;20259;-94
2023/06/23 04:55:55;;;;;;;151.32;54.08;;;17.20;99.90;;;;;;5058291;28;20381;-95
2023/06/23 04:58:24;;;;;;;129.20;54.20;;;17.20;99.90;;;;;;5044650;28;20100;-95
2023/06/23 05:00:51;;;;;;;129.05;53.80;;;17.20;99.90;;;;;;5045048;28;20478;-94
2023/06/23 05:03:18;;;;;;;137.63;55.05;;;17.20;99.90;;;;;;5048080;28;20021;-94
2023/06/23 05:05:49;;;;;;;127.55;53.80;;;17.20;99.90;;;;;;5060818;28;20012;-94
2023/06/23 05:08:15;;;;;;;150.73;55.75;;;17.30;99.90;;;;;;5066130;28;20055;-90
2023/06/23 05:10:44;;;;;;;160.05;57.15;;;17.30;99.90;;;;;;5065667;28;20009;-91
2023/06/23 05:13:11;;;;;;;175.38;60.10;;;17.40;99.90;;;;;;5047304;28;20140;-85
2023/06/23 05:15:37;;;;;;;171.55;57.83;;;17.40;99.90;;;;;;5059460;28;20029;-85
2023/06/23 05:18:05;;;;;;;141.13;53.78;;;17.40;99.90;;;;;;5043521;28;20385;-93
2023/06/23 05:20:31;;;;;;;145.88;55.72;;;17.40;99.90;;;;;;5028482;28;20029;-93
2023/06/23 05:23:02;;;;;;;156.18;58.15;;;17.50;99.90;;;;;;5045497;28;20029;-95
2023/06/23 05:25:30;;;;;;;137.25;53.15;;;17.50;99.90;;;;;;5028960;28;20025;-94
2023/06/23 05:28:01;;;;;;;127.68;51.72;;;17.50;99.90;;;;;;5029909;28;20432;-91
2023/06/23 05:30:28;;;;;;;149.63;55.50;;;17.60;99.90;;;;;;5046230;28;20092;-93
2023/06/23 05:32:57;;;;;;;167.55;60.63;;;17.50;99.90;;;;;;5029536;28;20036;-93
2023/06/23 05:35:32;;;;;;;130.02;53.97;;;17.60;99.90;;;;;;5044867;28;20025;-94
2023/06/23 05:38:01;;;;;;;160.48;60.22;;;17.60;99.90;;;;;;5044908;28;20482;-94
2023/06/23 05:40:27;;;;;;;198.32;63.97;;;17.60;99.90;;;;;;5045866;28;20024;-93
2023/06/23 05:42:53;;;;;;;118.40;52.17;;;17.60;99.90;;;;;;5047791;28;20028;-94
2023/06/23 05:45:19;;;;;;;126.50;53.95;;;17.70;99.90;;;;;;5061201;28;20041;-92
2023/06/23 05:47:53;;;;;;;188.48;63.80;;;17.70;99.90;;;;;;5064554;28;20059;-93
2023/06/23 05:50:25;;;;;;;175.73;59.35;;;17.70;99.90;;;;;;5044707;28;20021;-93
2023/06/23 05:52:59;;;;;;;143.60;56.25;;;17.80;99.90;;;;;;5045968;28;20044;-93
2023/06/23 05:55:27;;;;;;;153.63;58.33;;;17.80;99.90;;;;;;5065018;28;20474;-94
2023/06/23 05:57:59;;;;;;;184.43;62.53;;;17.80;99.90;;;;;;5045175;28;20074;-93
2023/06/23 06:00:30;;;;;;;129.35;54.50;;;17.80;99.90;;;;;;5045345;28;20017;-93
2023/06/23 06:02:59;;;;;;;216.20;65.95;;;17.80;99.90;;;;;;5050096;28;20040;-94
2023/06/23 06:05:27;;;;;;;157.82;59.13;;;17.90;99.90;;;;;;5062894;28;20052;-93
2023/06/23 06:07:55;;;;;;;155.15;60.45;;;17.90;99.90;;;;;;5064974;28;20044;-93
2023/06/23 06:10:26;;;;;;;173.93;61.17;;;17.90;99.90;;;;;;5041795;28;20017;-94
2023/06/23 06:12:52;;;;;;;206.25;62.95;;;17.90;99.90;;;;;;5042091;28;20099;-93
2023/06/23 06:15:19;;;;;;;202.45;64.38;;;17.90;99.90;;;;;;5042253;28;20025;-94
2023/06/23 06:17:46;;;;;;;138.07;56.28;;;18.00;99.90;;;;;;5025250;28;20470;-93
2023/06/23 06:20:15;;;;;;;194.65;61.75;;;18.00;99.90;;;;;;5041234;28;20049;-92
2023/06/23 06:22:44;;;;;;;191.85;64.28;;;18.10;99.90;;;;;;5040535;28;20032;-93
2023/06/23 06:25:13;;;;;;;164.38;60.38;;;18.10;99.90;;;;;;5041866;28;20021;-93
2023/06/23 06:27:41;;;;;;;165.75;60.85;;;18.10;99.90;;;;;;5041160;28;20052;-93
2023/06/23 06:30:09;;;;;;;156.95;59.13;;;18.10;99.90;;;;;;5040948;28;20029;-92
2023/06/23 06:32:38;;;;;;;161.32;58.03;;;18.20;99.90;;;;;;5040494;28;20485;-93
2023/06/23 06:35:08;;;;;;;128.43;53.28;;;18.20;99.90;;;;;;5041093;28;20112;-92
2023/06/23 06:37:36;;;;;;;233.77;66.43;;;18.20;99.90;;;;;;5040197;28;20126;-92
2023/06/23 06:40:05;;;;;;;146.85;57.72;;;18.20;99.90;;;;;;5040546;28;20068;-93
2023/06/23 06:42:39;;;;;;;138.35;56.72;;;18.30;99.90;;;;;;5039965;28;20054;-94
2023/06/23 06:45:05;;;;;;;129.68;53.97;;;18.30;99.90;;;;;;5026974;28;20083;-95
2023/06/23 06:47:32;;;;;;;169.95;57.85;;;18.40;99.90;;;;;;5004631;28;20036;-94
2023/06/23 06:49:59;;;;;;;165.07;62.22;;;18.40;99.90;;;;;;5021598;28;20080;-96
2023/06/23 06:52:27;;;;;;;152.18;56.85;;;18.50;99.90;;;;;;5021007;28;20032;-96
2023/06/23 06:55:02;;;;;;;141.57;55.00;;;18.50;99.90;;;;;;5021578;28;20029;-95
2023/06/23 06:57:35;;;;;;;162.57;57.17;;;18.50;99.90;;;;;;5026194;28;20033;-94
2023/06/23 07:00:18;;;;;;;181.23;59.47;;;18.60;99.90;;;;;;5041096;28;20032;-94
2023/06/23 07:02:55;;;;;;;146.38;55.58;;;18.60;99.90;;;;;;5051908;28;20005;-93
2023/06/23 07:05:24;;;;;;;139.55;52.05;;;18.70;99.90;;;;;;5046406;28;20021;-96
2023/06/23 07:11:27;;;;;;;156.90;55.78;;;18.70;99.90;;;;;;5020950;28;20039;-95
2023/06/23 07:13:54;;;;;;;122.38;50.92;;;18.70;99.90;;;;;;5042858;28;20072;-93
2023/06/23 07:16:33;;;;;;;;;;;;;;;;;;;;;
2023/06/23 07:19:01;;;;;;;147.43;54.10;;;18.80;99.90;;;;;;5026949;28;20089;-95
2023/06/23 07:21:32;;;;;;;150.40;55.13;;;18.80;99.90;;;;;;5040674;28;20550;-96
2023/06/23 07:24:16;;;;;;;124.10;51.70;;;18.90;99.90;;;;;;5040995;28;20025;-96
2023/06/23 07:26:44;;;;;;;109.35;50.13;;;18.90;99.90;;;;;;5039828;28;20116;-96
2023/06/23 07:29:30;;;;;;;128.27;50.95;;;19.00;99.90;;;;;;5040308;28;20025;-96
2023/06/23 07:32:02;;;;;;;106.10;47.35;;;19.00;99.90;;;;;;5039867;28;20060;-95
2023/06/23 07:34:33;;;;;;;132.27;48.60;;;19.10;99.90;;;;;;5023408;28;20060;-94
2023/06/23 07:36:59;;;;;;;101.50;46.22;;;19.10;99.90;;;;;;5023630;28;20052;-96
2023/06/23 07:39:32;;;;;;;88.00;42.60;;;19.10;99.90;;;;;;5039656;28;20025;-95
2023/06/23 07:42:02;;;;;;;96.43;44.72;;;19.20;99.90;;;;;;5039636;28;20025;-96
2023/06/23 07:47:29;;;;;;;106.20;44.95;;;19.20;99.90;;;;;;5057066;28;20037;-94
2023/06/23 07:50:26;;;;;;;;;;;;;;;;;;;;;
2023/06/23 07:53:06;;;;;;;102.00;45.00;;;19.30;99.90;;;;;;5009787;28;20463;-96
2023/06/23 07:55:35;;;;;;;96.50;41.72;;;19.30;99.90;;;;;;5019932;28;20112;-95
2023/06/23 07:58:10;;;;;;;88.78;43.00;;;19.30;99.90;;;;;;5019470;28;20056;-93
2023/06/23 08:00:47;;;;;;;84.78;40.75;;;19.30;99.90;;;;;;5019215;28;20029;-94
2023/06/23 08:03:42;;;;;;;106.18;45.58;;;19.30;99.90;;;;;;5019452;28;20033;-94
2023/06/23 08:06:21;;;;;;;;;;;;;;;;;;;;;
2023/06/23 08:09:17;;;;;;;;;;;;;;;;;;;;;
2023/06/23 08:11:46;;;;;;;91.43;43.05;;;19.40;99.90;;;;;;5057706;28;20017;-94
2023/06/23 08:14:15;;;;;;;100.57;44.08;;;19.50;99.90;;;;;;5040945;28;20028;-93
2023/06/23 08:16:48;;;;;;;97.75;45.35;;;19.50;99.90;;;;;;5041095;28;20039;-92
2023/06/23 08:19:14;;;;;;;89.43;42.58;;;19.50;99.90;;;;;;5040874;28;20045;-95
2023/06/23 08:21:43;;;;;;;71.70;38.03;;;19.60;99.90;;;;;;5065533;28;20054;-94
2023/06/23 08:24:08;;;;;;;72.32;37.10;;;19.60;99.90;;;;;;5097752;28;20025;-92
2023/06/23 08:26:34;;;;;;;61.90;32.08;;;19.60;99.90;;;;;;5040020;28;20039;-93
2023/06/23 08:29:03;;;;;;;58.63;31.50;;;19.70;99.90;;;;;;5063753;28;20051;-92
2023/06/23 08:31:29;;;;;;;58.65;31.05;;;19.70;99.90;;;;;;5077741;28;20033;-94
2023/06/23 08:33:57;;;;;;;50.88;28.63;;;19.80;99.90;;;;;;5058755;28;20028;-92
2023/06/23 08:36:33;;;;;;;51.00;28.95;;;19.80;99.90;;;;;;5059240;28;20028;-94
2023/06/23 08:38:59;;;;;;;57.60;33.15;;;19.80;99.90;;;;;;5026942;28;20051;-89
2023/06/23 08:41:25;;;;;;;56.25;32.83;;;19.80;99.90;;;;;;5056788;28;20371;-82
2023/06/23 08:43:53;;;;;;;52.97;30.42;;;19.90;99.90;;;;;;5043784;28;20029;-83
2023/06/23 08:46:24;;;;;;;48.33;27.50;;;19.90;99.90;;;;;;5015118;28;20179;-82
2023/06/23 08:48:50;;;;;;;;;;;19.80;99.90;;;;;;5015669;28;20024;-81
2023/06/23 08:51:46;;;;;;;45.38;25.77;;;19.90;99.90;;;;;;5033589;28;19992;-96
2023/06/23 08:58:03;;;;;;;;;;;;;;;;;;;;;
2023/06/23 09:01:10;;;;;;;;;;;;;;;;;;;;;
2023/06/23 09:04:04;;;;;;;;;;;;;;;;;;;;;
2023/06/23 09:14:06;;;;;;;22.98;13.95;;;20.00;99.90;;;;;;5029600;28;20044;-95
2023/06/23 09:16:35;;;;;;;19.27;13.00;;;20.00;99.90;;;;;;5023084;28;20037;-96
2023/06/23 09:26:04;;;;;;;24.63;17.15;;;20.00;99.90;;;;;;5063139;23;20043;-96
2023/06/23 09:28:31;;;;;;;28.17;18.95;;;20.10;99.90;;;;;;5037561;28;20025;-96
2023/06/23 09:30:59;;;;;;;29.10;19.38;;;20.00;99.90;;;;;;5036550;28;20017;-96
2023/06/23 09:33:26;;;;;;;27.85;18.15;;;20.10;99.90;;;;;;5020000;28;20550;-95
2023/06/23 09:35:54;;;;;;;25.60;18.65;;;20.10;99.90;;;;;;5049355;28;20479;-92
2023/06/23 09:38:34;;;;;;;27.65;18.10;;;20.10;99.90;;;;;;5058060;28;20001;-92
2023/06/23 09:41:11;;;;;;;26.33;16.85;;;20.20;99.90;;;;;;5060024;28;20108;-92
2023/06/23 09:43:43;;;;;;;23.17;17.23;;;20.20;99.90;;;;;;5064507;28;20005;-91
2023/06/23 09:46:11;;;;;;;28.35;19.50;;;20.30;99.90;;;;;;5064475;28;20013;-92
2023/06/23 09:48:38;;;;;;;23.60;16.80;;;20.30;99.90;;;;;;5047702;28;20029;-92
2023/06/23 09:51:05;;;;;;;20.75;13.90;;;20.40;99.90;;;;;;5047595;28;20032;-95
2023/06/23 09:53:35;;;;;;;21.17;13.80;;;20.40;99.90;;;;;;5039879;28;20112;-95
2023/06/23 09:56:03;;;;;;;18.53;12.70;;;20.50;99.90;;;;;;5040045;28;20128;-95
2023/06/23 09:58:37;;;;;;;20.95;14.32;;;20.50;99.90;;;;;;5023597;28;20021;-95
2023/06/23 10:01:04;;;;;;;21.95;13.07;;;20.50;99.90;;;;;;5024051;28;20017;-95
2023/06/23 10:03:31;;;;;;;15.15;10.30;;;20.60;99.90;;;;;;5023250;28;20025;-95
2023/06/23 10:05:58;;;;;;;14.00;11.27;;;20.60;99.90;;;;;;5039740;28;20059;-95
2023/06/23 10:08:27;;;;;;;20.45;13.25;;;20.70;99.90;;;;;;5039868;28;20432;-92
2023/06/23 10:10:53;;;;;;;17.98;11.90;;;20.70;99.90;;;;;;5023249;28;20055;-91
2023/06/23 10:13:23;;;;;;;14.68;10.40;;;20.80;99.90;;;;;;5039461;28;20062;-91
2023/06/23 10:15:48;;;;;;;17.10;10.98;;;20.90;99.90;;;;;;5039408;28;20035;-90
2023/06/23 10:18:14;;;;;;;13.48;10.05;;;20.90;99.90;;;;;;5022735;28;20022;-89
2023/06/23 10:20:40;;;;;;;11.65;8.73;;;21.00;99.90;;;;;;5023582;28;20468;-89
2023/06/23 10:23:06;;;;;;;12.00;9.15;;;21.00;99.90;;;;;;5039224;28;20159;-92
2023/06/23 10:25:38;;;;;;;12.82;7.15;;;21.10;99.90;;;;;;5022826;28;20376;-91
2023/06/23 10:28:11;;;;;;;9.20;7.60;;;21.10;99.90;;;;;;5023309;28;20036;-91
2023/06/23 10:30:38;;;;;;;8.80;6.88;;;21.20;99.90;;;;;;5039759;28;20177;-94
2023/06/23 10:33:07;;;;;;;9.50;7.28;;;21.20;99.90;;;;;;5040229;28;20025;-93
2023/06/23 10:35:33;;;;;;;9.80;6.95;;;21.20;99.90;;;;;;5039472;28;20126;-94
2023/06/23 10:38:04;;;;;;;8.10;6.47;;;21.20;99.90;;;;;;5022477;28;20028;-94
2023/06/23 10:40:37;;;;;;;9.63;7.15;;;21.30;99.90;;;;;;5022759;28;20028;-91
2023/06/23 10:43:05;;;;;;;9.13;6.97;;;21.30;99.90;;;;;;5039943;28;20470;-93
2023/06/23 10:45:31;;;;;;;8.75;7.30;;;21.40;99.90;;;;;;5038662;28;20025;-93
2023/06/23 10:47:58;;;;;;;8.57;7.07;;;21.40;99.90;;;;;;5022544;28;20123;-93
2023/06/23 10:50:29;;;;;;;9.57;6.20;;;21.50;99.90;;;;;;5008312;28;20040;-93
2023/06/23 10:52:56;;;;;;;10.45;5.82;;;21.50;99.90;;;;;;5039280;28;20046;-93
2023/06/23 10:55:36;;;;;;;8.85;6.45;;;21.50;99.90;;;;;;5045212;28;20025;-94
2023/06/23 10:58:18;;;;;;;8.30;5.67;;;21.60;99.90;;;;;;5036413;28;20055;-94
2023/06/23 11:01:04;;;;;;;8.63;5.80;;;21.50;99.90;;;;;;5023926;28;20049;-94
2023/06/23 11:03:33;;;;;;;10.20;6.63;;;21.50;99.90;;;;;;5041865;28;20033;-93
2023/06/23 11:06:04;;;;;;;9.65;6.20;;;21.50;99.90;;;;;;5046356;28;20047;-92
2023/06/23 11:08:35;;;;;;;9.55;6.10;;;21.60;99.90;;;;;;5047268;28;20025;-93
2023/06/23 11:11:04;;;;;;;8.07;5.47;;;21.60;99.90;;;;;;5047915;28;20032;-90
2023/06/23 11:13:49;;;;;;;7.40;6.00;;;21.70;99.90;;;;;;5038604;28;20024;-94
2023/06/23 11:16:17;;;;;;;8.68;5.32;;;21.80;99.90;;;;;;5039698;28;20028;-94
2023/06/23 11:18:54;;;;;;;6.82;5.00;;;21.80;99.90;;;;;;5038973;28;20032;-93
2023/06/23 11:21:30;;;;;;;5.53;4.07;;;21.90;99.90;;;;;;5039037;28;20021;-94
2023/06/23 11:24:25;;;;;;;7.38;4.88;;;21.90;99.90;;;;;;5038361;28;20025;-94
2023/06/23 11:27:02;;;;;;;5.40;4.28;;;21.90;99.90;;;;;;5030079;28;20049;-92
2023/06/23 11:29:28;;;;;;;5.25;4.10;;;22.00;99.90;;;;;;5036145;28;20033;-93
2023/06/23 11:32:07;;;;;;;6.22;4.40;;;22.00;99.90;;;;;;5035651;28;20030;-93
2023/06/23 11:35:01;;;;;;;6.63;4.30;;;22.00;99.90;;;;;;5035528;28;20049;-93
2023/06/23 11:37:38;;;;;;;6.95;4.32;;;22.10;99.90;;;;;;5015049;28;20036;-93
2023/06/23 11:40:05;;;;;;;5.43;3.80;;;22.10;99.90;;;;;;5003954;28;20024;-93
2023/06/23 11:42:31;;;;;;;5.07;3.72;;;22.10;99.90;;;;;;5005440;28;20047;-93
2023/06/23 11:44:57;;;;;;;5.38;3.60;;;22.20;99.90;;;;;;5022690;28;20475;-93
2023/06/23 11:47:27;;;;;;;7.15;3.97;;;22.20;99.90;;;;;;5021443;28;20021;-93
2023/06/23 11:49:53;;;;;;;6.27;4.40;;;22.30;99.90;;;;;;5038025;28;20422;-92
2023/06/23 11:52:20;;;;;;;9.05;4.22;;;22.30;99.90;;;;;;5037893;28;20029;-94
2023/06/23 11:54:48;;;;;;;5.63;3.55;;;22.30;99.90;;;;;;5037800;28;20112;-93
2023/06/23 11:57:19;;;;;;;5.95;4.38;;;22.40;99.90;;;;;;5020674;28;20120;-93
2023/06/23 11:59:45;;;;;;;5.47;3.42;;;22.40;99.90;;;;;;5018646;28;20028;-94
2023/06/23 12:02:11;;;;;;;5.93;3.53;;;22.50;99.90;;;;;;4987892;28;20030;-94
2023/06/23 12:04:36;;;;;;;5.28;3.33;;;22.50;99.90;;;;;;4995944;28;20064;-94
2023/06/23 12:07:05;;;;;;;7.35;3.33;;;22.60;99.90;;;;;;4994959;28;20053;-93
2023/06/23 12:09:31;;;;;;;5.03;3.58;;;22.60;99.90;;;;;;4999805;28;20033;-94
2023/06/23 12:11:58;;;;;;;7.22;3.63;;;22.60;99.90;;;;;;5029551;28;20025;-94
2023/06/23 12:14:34;;;;;;;6.65;3.60;;;22.70;99.90;;;;;;4990189;28;20045;-94
2023/06/23 12:17:05;;;;;;;4.40;3.20;;;22.70;99.90;;;;;;5021554;28;20116;-94
2023/06/23 12:19:32;;;;;;;6.00;3.20;;;22.80;99.90;;;;;;4985732;28;20548;-95
2023/06/23 12:21:59;;;;;;;5.63;3.38;;;22.80;99.90;;;;;;5001965;28;20029;-94
2023/06/23 12:24:25;;;;;;;5.38;3.38;;;22.90;99.90;;;;;;5001830;28;20176;-93
2023/06/23 12:26:54;;;;;;;5.32;3.42;;;22.90;99.90;;;;;;5001471;28;20050;-93
2023/06/23 12:29:21;;;;;;;5.03;2.88;;;23.00;99.90;;;;;;5004014;28;20033;-93
2023/06/23 12:31:57;;;;;;;6.10;3.83;;;23.00;99.90;;;;;;5003869;28;20009;-95
2023/06/23 12:34:48;;;;;;;6.97;3.67;;;23.10;99.90;;;;;;5018089;28;20040;-94
2023/06/23 12:37:14;;;;;;;6.07;3.53;;;23.10;99.90;;;;;;5002510;28;20040;-94
2023/06/23 12:39:40;;;;;;;3.90;3.30;;;23.20;99.90;;;;;;5001900;28;20038;-92
2023/06/23 12:42:09;;;;;;;3.50;3.17;;;23.30;99.90;;;;;;5022264;28;20030;-93
2023/06/23 12:44:36;;;;;;;5.80;3.45;;;23.30;99.90;;;;;;5038914;28;20049;-93
2023/06/23 12:47:04;;;;;;;3.05;2.72;;;23.30;99.90;;;;;;5022864;28;20010;-93
2023/06/23 12:49:31;;;;;;;4.47;3.33;;;23.40;99.90;;;;;;5006429;28;20077;-93
2023/06/23 12:52:00;;;;;;;4.55;3.20;;;23.40;99.90;;;;;;5021954;28;20101;-93
2023/06/23 12:54:27;;;;;;;4.82;3.22;;;23.50;99.90;;;;;;5020074;28;20030;-89
2023/06/23 12:56:58;;;;;;;5.45;3.55;;;23.50;99.90;;;;;;5000700;28;20036;-89
2023/06/23 12:59:27;;;;;;;4.68;3.50;;;23.60;99.90;;;;;;5017956;28;20369;-89
2023/06/23 13:01:54;;;;;;;4.10;3.50;;;23.70;99.90;;;;;;5001016;28;20029;-89
2023/06/23 13:04:21;;;;;;;5.07;3.55;;;23.70;99.90;;;;;;5000339;28;20024;-89
2023/06/23 13:06:48;;;;;;;6.47;3.00;;;23.70;99.90;;;;;;5000512;28;20040;-90
2023/06/23 13:09:13;;;;;;;4.80;3.33;;;23.80;99.90;;;;;;5001355;28;20026;-91
2023/06/23 13:11:39;;;;;;;6.20;3.40;;;23.80;99.90;;;;;;5022530;28;20006;-93
2023/06/23 13:14:05;;;;;;;5.75;3.13;;;23.90;99.90;;;;;;5003952;28;20025;-93
2023/06/23 13:16:31;;;;;;;4.75;3.45;;;23.90;99.90;;;;;;5013537;28;20083;-93
2023/06/23 13:18:57;;;;;;;5.60;3.55;;;23.90;99.90;;;;;;4989689;28;20076;-94
2023/06/23 13:21:23;;;;;;;6.95;3.88;;;24.00;99.90;;;;;;5004851;28;20416;-93